createdAt,value
2022-09-28T00:16:03.426Z,98464.20
2022-09-28T00:22:57.021Z,98451.80
2022-09-28T00:26:38.851Z,98454.40
2022-09-28T00:34:26.322Z,98440.00
2022-09-28T00:37:58.687Z,98435.80
2022-09-28T01:04:02.226Z,98412.80
2022-09-28T01:35:49.851Z,98406.80
2022-09-28T01:38:58.820Z,98402.20
2022-09-28T01:42:55.341Z,98389.00
2022-09-28T01:46:01.873Z,98390.40
2022-09-28T01:49:12.887Z,98386.40
2022-09-28T01:55:49.047Z,98385.40
2022-09-28T01:58:57.071Z,98386.20
2022-09-28T02:02:02.659Z,98388.20
2022-09-28T02:05:38.510Z,98389.20
2022-09-28T02:08:48.707Z,98388.00
2022-09-28T02:11:54.701Z,98382.60
2022-09-28T02:15:00.587Z,98384.40
2022-09-28T02:18:26.627Z,98378.20
2022-09-28T02:21:33.586Z,98377.80
2022-09-28T02:24:48.522Z,98388.00
2022-09-28T02:27:54.132Z,98379.00
2022-09-28T02:31:00.802Z,98382.20
2022-09-28T02:37:31.852Z,98383.40
2022-09-28T02:40:39.919Z,98381.20
2022-09-28T02:43:48.987Z,98384.00
2022-09-28T02:47:02.761Z,98382.40
2022-09-28T02:50:12.862Z,98382.60
2022-09-28T02:53:22.027Z,98374.40
2022-09-28T02:57:03.023Z,98378.80
2022-09-28T03:00:38.778Z,98376.20
2022-09-28T03:03:44.320Z,98376.20
2022-09-28T03:07:35.635Z,98376.60
2022-09-28T03:11:10.860Z,98375.80
2022-09-28T03:14:23.281Z,98381.60
2022-09-28T03:17:29.594Z,98383.00
2022-09-28T03:20:58.968Z,98385.00
2022-09-28T03:24:44.881Z,98381.80
2022-09-28T03:28:00.522Z,98379.60
2022-09-28T03:31:07.876Z,98384.20
2022-09-28T03:34:40.610Z,98381.40
2022-09-28T03:37:48.501Z,98372.60
2022-09-28T03:41:03.248Z,98370.20
2022-09-28T03:47:45.011Z,98382.20
2022-09-28T03:51:17.762Z,98382.60
2022-09-28T03:54:24.781Z,98383.20
2022-09-28T03:57:32.804Z,98383.80
2022-09-28T04:01:07.540Z,98382.40
2022-09-28T04:04:14.907Z,98378.60
2022-09-28T04:07:59.542Z,98379.60
2022-09-28T04:11:05.702Z,98371.80
2022-09-28T13:13:31.863Z,98195.40
2022-09-28T13:16:49.030Z,98190.20
2022-09-28T13:19:30.223Z,98188.60
2022-09-28T13:22:25.542Z,98193.40
2022-09-28T13:25:03.226Z,98199.40
2022-09-28T13:27:45.868Z,98198.40
2022-09-28T13:30:18.442Z,98188.80
2022-09-28T13:32:50.201Z,98189.40
2022-09-28T13:35:22.542Z,98193.20
2022-09-28T13:38:17.961Z,98191.60
2022-09-28T13:41:06.053Z,98190.60
2022-09-28T13:44:11.035Z,98185.60
2022-09-28T13:47:01.011Z,98187.80
2022-09-28T13:50:13.022Z,98185.60
2022-09-28T13:53:20.223Z,98188.60
2022-09-28T13:56:06.301Z,98187.00
2022-09-28T13:58:49.121Z,98190.40
2022-09-28T14:01:33.605Z,98188.60
2022-09-28T14:04:22.341Z,98190.20
2022-09-28T14:07:16.837Z,98189.20
2022-09-28T14:10:15.621Z,98186.60
2022-09-28T14:12:54.581Z,98195.00
2022-09-28T14:15:40.460Z,98195.00
2022-09-28T14:18:25.410Z,98193.00
2022-09-28T14:21:29.424Z,98188.20
2022-09-28T14:24:53.152Z,98180.40
2022-09-28T14:28:03.450Z,98183.60
2022-09-28T14:30:38.937Z,98175.40
2022-09-28T14:33:30.842Z,98179.60
2022-09-28T14:36:05.463Z,98184.80
2022-09-28T14:39:10.011Z,98180.40
2022-09-28T14:41:43.721Z,98177.00
2022-09-28T14:44:16.787Z,98180.80
2022-09-28T14:46:49.460Z,98170.40
2022-09-28T14:49:18.463Z,98169.40
2022-09-28T14:51:56.540Z,98165.00
2022-09-28T14:54:29.140Z,98166.20
2022-09-28T14:57:25.920Z,98164.40
2022-09-28T15:00:00.120Z,98160.80
2022-09-28T15:02:33.761Z,98164.20
2022-09-28T15:05:27.047Z,98159.40
2022-09-28T15:07:56.775Z,98167.20
2022-09-28T15:10:40.107Z,98165.20
2022-09-28T15:13:29.155Z,98163.00
2022-09-28T15:16:10.294Z,98170.20
2022-09-28T15:19:06.896Z,98166.60
2022-09-28T15:21:42.047Z,98168.40
2022-09-28T15:24:34.694Z,98169.80
2022-09-28T15:27:16.096Z,98172.20
2022-09-28T15:30:00.023Z,98170.40
2022-09-28T15:32:32.084Z,98171.20
2022-09-28T15:35:20.980Z,98173.00
2022-09-28T15:37:52.463Z,98178.40
2022-09-28T15:40:35.578Z,98185.40
2022-09-28T15:43:29.280Z,98190.80
2022-09-28T15:46:13.676Z,98201.40
2022-09-28T15:49:00.242Z,98205.00
2022-09-28T15:51:32.922Z,98209.80
2022-09-28T15:54:19.863Z,98209.60
2022-09-28T15:57:00.202Z,98206.40
2022-09-28T15:59:41.540Z,98214.80
2022-09-28T16:02:16.995Z,98215.40
2022-09-28T16:04:53.501Z,98212.20
2022-09-28T16:07:39.181Z,98215.40
2022-09-28T16:10:14.221Z,98218.00
2022-09-28T16:12:49.003Z,98226.20
2022-09-28T16:15:31.845Z,98229.60
2022-09-28T16:18:24.003Z,98227.80
2022-09-28T16:20:56.969Z,98225.20
2022-09-28T16:23:37.141Z,98222.00
2022-09-28T16:26:33.191Z,98230.80
2022-09-28T16:29:32.982Z,98226.40
2022-09-28T16:32:34.703Z,98231.40
2022-09-28T16:35:26.346Z,98231.00
2022-09-28T16:38:10.123Z,98232.80
2022-09-28T16:40:43.666Z,98228.60
2022-09-28T16:43:36.920Z,98231.20
2022-09-28T16:46:16.895Z,98236.60
2022-09-28T16:48:51.301Z,98242.00
2022-09-28T16:51:23.681Z,98241.60
2022-09-28T16:54:12.382Z,98245.00
2022-09-28T16:56:41.363Z,98248.80
2022-09-28T16:59:13.757Z,98251.20
2022-09-28T17:01:45.933Z,98250.60
2022-09-28T17:04:15.001Z,98254.40
2022-09-28T17:06:45.689Z,98256.80
2022-09-28T17:09:15.727Z,98255.20
2022-09-28T17:11:45.162Z,98261.20
2022-09-28T17:14:14.761Z,98260.20
2022-09-28T17:17:06.971Z,98259.80
2022-09-28T17:19:34.351Z,98265.80
2022-09-28T17:22:04.093Z,98276.60
2022-09-28T17:24:34.099Z,98280.60
2022-09-28T17:27:05.903Z,98285.80
2022-09-28T17:29:34.645Z,98290.60
2022-09-28T17:32:05.684Z,98295.40
2022-09-28T17:34:34.481Z,98291.40
2022-09-28T17:37:03.981Z,98298.00
2022-09-28T17:39:32.767Z,98304.00
2022-09-28T17:42:01.761Z,98308.00
2022-09-28T17:44:32.112Z,98315.60
2022-09-28T17:47:02.468Z,98314.40
2022-09-28T17:49:31.600Z,98317.40
2022-09-28T17:52:02.097Z,98319.80
2022-09-28T17:54:31.740Z,98330.00
2022-09-28T17:57:01.043Z,98329.40
2022-09-28T17:59:30.181Z,98334.60
2022-09-28T18:02:02.181Z,98339.80
2022-09-28T18:04:51.333Z,98336.20
2022-09-28T18:07:21.600Z,98341.80
2022-09-28T18:09:57.124Z,98340.80
2022-09-28T18:12:27.400Z,98341.60
2022-09-28T18:14:57.071Z,98346.40
2022-09-28T18:17:25.901Z,98346.60
2022-09-28T18:19:55.975Z,98342.80
2022-09-28T18:22:25.080Z,98349.40
2022-09-28T18:24:54.130Z,98357.80
2022-09-28T18:27:23.384Z,98355.00
2022-09-28T18:29:52.480Z,98360.20
2022-09-28T18:32:24.170Z,98366.80
2022-09-28T18:34:53.520Z,98367.80
2022-09-28T18:37:22.521Z,98370.60
2022-09-28T18:39:51.331Z,98371.00
2022-09-28T18:42:21.444Z,98370.80
2022-09-28T18:44:50.545Z,98371.20
2022-09-28T18:47:19.742Z,98371.60
2022-09-28T18:49:51.170Z,98378.80
2022-09-28T18:52:21.475Z,98383.60
2022-09-28T18:54:51.321Z,98388.00
2022-09-28T18:57:20.523Z,98394.00
2022-09-28T18:59:49.501Z,98393.80
2022-09-28T19:02:18.431Z,98400.40
2022-09-28T19:04:47.492Z,98403.00
2022-09-28T19:07:17.501Z,98406.60
2022-09-28T19:09:46.401Z,98411.80
2022-09-28T19:12:15.521Z,98412.20
2022-09-28T19:14:44.500Z,98418.00
2022-09-28T19:17:13.481Z,98420.20
2022-09-28T19:19:45.560Z,98423.20
2022-09-28T19:22:14.541Z,98428.20
2022-09-28T19:24:43.449Z,98429.40
2022-09-28T19:27:12.442Z,98433.40
2022-09-28T19:29:41.401Z,98425.40
2022-09-28T19:32:12.482Z,98427.80
2022-09-28T19:34:41.561Z,98430.20
2022-09-28T19:37:10.461Z,98431.60
2022-09-28T19:39:39.341Z,98431.80
2022-09-28T19:42:08.743Z,98435.00
2022-09-28T19:44:37.542Z,98434.00
2022-09-28T19:47:10.249Z,98434.00
2022-09-28T19:49:41.921Z,98438.20
2022-09-28T19:52:17.944Z,98440.60
2022-09-28T19:54:57.169Z,98437.60
2022-09-28T19:57:30.963Z,98441.60
2022-09-28T20:00:03.098Z,98445.20
2022-09-28T20:02:35.207Z,98442.20
2022-09-28T20:05:04.501Z,98446.60
2022-09-28T20:07:35.131Z,98449.20
2022-09-28T20:10:04.350Z,98456.80
2022-09-28T20:12:33.341Z,98460.00
2022-09-28T20:15:02.136Z,98469.60
2022-09-28T20:17:31.022Z,98479.40
2022-09-28T20:19:59.794Z,98486.40
2022-09-28T20:22:29.825Z,98485.00
2022-09-28T20:24:58.822Z,98490.80
2022-09-28T20:27:33.652Z,98500.00
2022-09-28T20:30:06.521Z,98506.40
2022-09-28T20:32:35.641Z,98500.40
2022-09-28T20:35:06.021Z,98507.60
2022-09-28T20:37:35.102Z,98511.20
2022-09-28T20:40:04.802Z,98514.60
2022-09-28T20:42:36.905Z,98513.00
2022-09-28T20:45:06.668Z,98513.80
2022-09-28T20:47:35.621Z,98517.40
2022-09-28T20:50:06.980Z,98519.20
2022-09-28T20:52:36.081Z,98527.80
2022-09-28T20:55:05.423Z,98526.60
2022-09-28T20:57:34.361Z,98531.40
2022-09-28T21:00:04.561Z,98537.80
2022-09-28T21:02:34.183Z,98544.80
2022-09-28T21:05:03.181Z,98547.60
2022-09-28T21:07:32.181Z,98547.20
2022-09-28T21:10:00.721Z,98558.40
2022-09-28T21:12:30.206Z,98559.20
2022-09-28T21:15:02.253Z,98561.40
2022-09-28T21:17:34.393Z,98563.60
2022-09-28T21:20:03.702Z,98566.60
2022-09-28T21:22:32.481Z,98564.20
2022-09-28T21:25:01.323Z,98565.80
2022-09-28T21:27:30.382Z,98567.20
2022-09-28T21:29:59.281Z,98570.20
2022-09-28T21:32:29.802Z,98572.80
2022-09-28T21:34:58.783Z,98577.20
2022-09-28T21:37:27.688Z,98572.20
2022-09-28T21:39:56.981Z,98571.00
2022-09-28T21:42:25.781Z,98577.80
2022-09-28T21:44:58.791Z,98580.80
2022-09-28T21:47:28.683Z,98583.00
2022-09-28T21:49:57.482Z,98586.60
2022-09-28T21:52:26.783Z,98588.60
2022-09-28T21:54:55.749Z,98586.00
2022-09-28T21:57:24.360Z,98589.60
2022-09-28T22:00:05.423Z,98590.20
2022-09-28T22:02:34.516Z,98594.00
2022-09-28T22:05:03.841Z,98590.40
2022-09-28T22:07:33.255Z,98594.20
2022-09-28T22:10:02.582Z,98597.80
2022-09-28T22:31:20.125Z,98617.60
2022-09-28T22:33:55.309Z,98612.00
2022-09-28T22:36:26.706Z,98615.80
2022-09-28T22:39:09.156Z,98616.80
2022-09-28T22:41:49.587Z,98618.40
2022-09-28T22:44:19.778Z,98618.60
2022-09-28T22:46:57.963Z,98622.00
2022-09-28T22:50:13.066Z,98623.40
2022-09-28T22:53:33.319Z,98626.00
2022-09-28T23:07:25.184Z,98637.60
2022-09-28T23:11:06.248Z,98634.60
2022-09-28T23:14:45.478Z,98636.20
2022-09-28T23:17:18.418Z,98638.00
2022-09-28T23:19:47.763Z,98640.00
2022-09-28T23:22:16.565Z,98640.40
2022-09-28T23:24:45.507Z,98639.20
2022-09-28T23:27:16.512Z,98640.00
2022-09-28T23:30:13.150Z,98638.80
2022-09-28T23:33:42.632Z,98639.60
2022-09-28T23:40:30.119Z,98636.20
2022-09-28T23:43:54.159Z,98636.40
2022-09-28T23:46:51.227Z,98638.40
2022-09-28T23:53:03.871Z,98634.80
2022-09-28T23:59:35.391Z,98636.00
